createdAt,value
2023-05-05T00:00:28.722Z,20.16
2023-05-05T00:01:49.225Z,20.16
2023-05-05T00:02:54.832Z,20.16
2023-05-05T00:04:01.001Z,20.15
2023-05-05T00:05:07.230Z,20.15
2023-05-05T00:06:13.211Z,20.15
2023-05-05T00:07:19.308Z,20.16
2023-05-05T00:08:24.899Z,20.16
2023-05-05T00:09:30.307Z,20.16
2023-05-05T00:10:36.950Z,20.16
2023-05-05T00:11:43.191Z,20.15
2023-05-05T00:12:48.578Z,20.16
2023-05-05T00:13:54.215Z,20.16
2023-05-05T00:14:59.730Z,20.16
2023-05-05T00:16:05.555Z,20.16
2023-05-05T00:17:11.067Z,20.16
2023-05-05T00:18:18.488Z,20.16
2023-05-05T00:19:24.072Z,20.16
2023-05-05T00:20:29.986Z,20.16
2023-05-05T00:21:36.463Z,20.16
2023-05-05T00:22:42.835Z,20.16
2023-05-05T00:23:48.698Z,20.16
2023-05-05T00:24:54.298Z,20.17
2023-05-05T00:25:59.684Z,20.17
2023-05-05T00:27:05.696Z,20.17
2023-05-05T00:28:11.280Z,20.17
2023-05-05T00:29:16.991Z,20.18
2023-05-05T00:30:22.615Z,20.17
2023-05-05T00:31:28.800Z,20.18
2023-05-05T00:32:34.441Z,20.18
2023-05-05T00:33:40.075Z,20.18
2023-05-05T00:34:45.931Z,20.18
2023-05-05T00:35:52.485Z,20.18
2023-05-05T00:36:58.239Z,20.17
2023-05-05T00:38:15.930Z,20.17
2023-05-05T00:39:21.968Z,20.17
2023-05-05T00:40:27.791Z,20.18
2023-05-05T00:41:33.820Z,20.18
2023-05-05T00:42:44.462Z,20.18
2023-05-05T00:43:49.976Z,20.17
2023-05-05T00:44:55.904Z,20.17
2023-05-05T00:46:03.465Z,20.18
2023-05-05T00:47:12.823Z,20.18
2023-05-05T00:48:20.355Z,20.18
2023-05-05T00:49:26.131Z,20.18
2023-05-05T00:50:32.145Z,20.17
2023-05-05T00:51:37.523Z,20.17
2023-05-05T00:52:43.088Z,20.17
2023-05-05T00:53:49.223Z,20.17
2023-05-05T00:54:54.741Z,20.17
2023-05-05T00:56:00.155Z,20.17
2023-05-05T00:57:05.961Z,20.17
2023-05-05T00:58:11.828Z,20.17
2023-05-05T00:59:18.250Z,20.16
2023-05-05T01:00:24.030Z,20.17
2023-05-05T01:01:29.568Z,20.17
2023-05-05T01:02:35.112Z,20.17
2023-05-05T01:03:40.781Z,20.17
2023-05-05T01:04:46.858Z,20.16
2023-05-05T01:06:27.545Z,20.17
2023-05-05T01:07:56.668Z,20.15
2023-05-05T01:09:20.174Z,20.14
2023-05-05T01:10:47.133Z,20.15
2023-05-05T01:12:05.253Z,20.14
2023-05-05T01:13:38.551Z,20.14
2023-05-05T01:14:47.739Z,20.13
2023-05-05T01:16:14.915Z,20.14
2023-05-05T01:17:22.642Z,20.14
2023-05-05T01:18:50.351Z,20.14
2023-05-05T01:20:04.662Z,20.14
2023-05-05T01:21:24.228Z,20.14
2023-05-05T01:22:46.879Z,20.13
2023-05-05T01:24:31.707Z,20.13
2023-05-05T01:26:03.925Z,20.12
2023-05-05T01:27:39.093Z,20.12
2023-05-05T01:29:10.769Z,20.12
2023-05-05T01:30:48.095Z,20.12
2023-05-05T01:31:57.573Z,20.12
2023-05-05T01:33:07.065Z,20.12
2023-05-05T01:34:12.752Z,20.12
2023-05-05T01:35:21.902Z,20.13
2023-05-05T01:36:40.448Z,20.12
2023-05-05T01:37:56.406Z,20.12
2023-05-05T01:39:02.557Z,20.13
2023-05-05T01:40:10.037Z,20.14
2023-05-05T01:41:19.392Z,20.14
2023-05-05T01:42:25.172Z,20.15
2023-05-05T01:43:33.004Z,20.15
2023-05-05T01:44:38.641Z,20.16
2023-05-05T01:45:44.614Z,20.17
2023-05-05T01:46:50.161Z,20.17
2023-05-05T01:47:56.539Z,20.17
2023-05-05T01:49:02.411Z,20.18
2023-05-05T01:50:10.101Z,20.18
2023-05-05T01:51:15.770Z,20.18
2023-05-05T01:52:21.193Z,20.18
2023-05-05T01:53:26.626Z,20.18
2023-05-05T01:54:34.069Z,20.19
2023-05-05T01:55:39.423Z,20.19
2023-05-05T01:56:45.018Z,20.18
2023-05-05T01:57:50.704Z,20.18
2023-05-05T01:58:56.296Z,20.18
2023-05-05T02:00:02.619Z,20.18
2023-05-05T02:01:22.469Z,20.18
2023-05-05T02:02:28.465Z,20.18
2023-05-05T02:03:34.487Z,20.18
2023-05-05T02:04:42.674Z,20.18
2023-05-05T02:05:47.994Z,20.18
2023-05-05T02:06:54.012Z,20.18
2023-05-05T02:08:00.636Z,20.18
2023-05-05T02:09:07.101Z,20.18
2023-05-05T02:10:14.147Z,20.17
2023-05-05T02:11:19.758Z,20.17
2023-05-05T02:12:25.408Z,20.17
2023-05-05T02:13:32.812Z,20.17
2023-05-05T02:14:38.337Z,20.16
2023-05-05T02:15:43.767Z,20.17
2023-05-05T02:16:49.427Z,20.17
2023-05-05T02:17:54.894Z,20.16
2023-05-05T02:19:02.154Z,20.16
2023-05-05T02:20:08.768Z,20.16
2023-05-05T02:21:15.280Z,20.16
2023-05-05T02:22:20.976Z,20.16
2023-05-05T02:23:26.195Z,20.16
2023-05-05T02:24:32.458Z,20.15
2023-05-05T02:25:43.614Z,20.15
2023-05-05T02:26:50.296Z,20.14
2023-05-05T02:27:55.764Z,20.15
2023-05-05T02:29:07.712Z,20.15
2023-05-05T02:30:15.036Z,20.14
2023-05-05T02:31:21.795Z,20.14
2023-05-05T02:32:36.089Z,20.14
2023-05-05T02:33:41.534Z,20.14
2023-05-05T02:34:47.599Z,20.14
2023-05-05T02:35:54.496Z,20.14
2023-05-05T02:37:02.352Z,20.14
2023-05-05T02:38:13.886Z,20.14
2023-05-05T02:39:44.242Z,20.13
2023-05-05T02:40:52.771Z,20.13
2023-05-05T02:41:58.781Z,20.13
2023-05-05T02:43:07.479Z,20.14
2023-05-05T02:44:13.064Z,20.14
2023-05-05T02:45:19.283Z,20.15
2023-05-05T02:46:26.528Z,20.15
2023-05-05T02:47:41.852Z,20.15
2023-05-05T02:48:47.612Z,20.16
2023-05-05T02:49:53.247Z,20.16
2023-05-05T02:50:58.466Z,20.17
2023-05-05T02:52:08.727Z,20.16
2023-05-05T02:53:15.261Z,20.17
2023-05-05T02:54:20.909Z,20.17
2023-05-05T02:55:28.076Z,20.17
2023-05-05T02:56:41.419Z,20.17
2023-05-05T02:58:07.324Z,20.17
2023-05-05T02:59:41.328Z,20.17
2023-05-05T03:00:54.145Z,20.16
2023-05-05T03:02:19.318Z,20.16
2023-05-05T03:03:38.323Z,20.16
2023-05-05T03:04:52.726Z,20.16
2023-05-05T03:06:07.656Z,20.16
2023-05-05T03:07:32.380Z,20.16
2023-05-05T03:08:52.040Z,20.16
2023-05-05T03:10:04.752Z,20.15
2023-05-05T03:11:34.253Z,20.16
2023-05-05T03:12:49.767Z,20.14
2023-05-05T03:14:12.240Z,20.14
2023-05-05T03:15:19.120Z,20.14
2023-05-05T03:16:24.762Z,20.14
2023-05-05T03:17:31.369Z,20.14
2023-05-05T03:18:38.150Z,20.14
2023-05-05T03:19:44.382Z,20.17
2023-05-05T03:20:50.310Z,20.22
2023-05-05T03:21:56.947Z,20.29
2023-05-05T03:23:03.017Z,20.36
2023-05-05T03:24:19.515Z,20.43
2023-05-05T03:25:52.572Z,20.50
2023-05-05T03:27:08.131Z,20.60
2023-05-05T03:28:17.081Z,20.68
2023-05-05T03:29:22.780Z,20.75
2023-05-05T03:30:28.144Z,20.81
2023-05-05T03:31:33.981Z,20.87
2023-05-05T03:32:40.005Z,20.94
2023-05-05T03:33:45.594Z,21.00
2023-05-05T03:34:54.758Z,21.06
2023-05-05T03:36:04.517Z,21.13
2023-05-05T03:37:10.302Z,21.18
2023-05-05T03:38:16.898Z,21.24
2023-05-05T03:39:22.432Z,21.30
2023-05-05T03:40:40.319Z,21.34
2023-05-05T03:41:49.276Z,21.41
2023-05-05T03:42:55.524Z,21.47
2023-05-05T03:44:01.402Z,21.51
2023-05-05T03:45:07.871Z,21.56
2023-05-05T03:46:13.470Z,21.61
2023-05-05T03:47:20.384Z,21.65
2023-05-05T03:48:26.365Z,21.70
2023-05-05T03:49:32.561Z,21.74
2023-05-05T03:50:38.398Z,21.79
2023-05-05T03:51:44.934Z,21.84
2023-05-05T03:52:50.840Z,21.88
2023-05-05T03:53:57.260Z,21.92
2023-05-05T03:55:02.948Z,21.97
2023-05-05T03:56:08.355Z,22.02
2023-05-05T03:57:14.111Z,22.05
2023-05-05T03:58:20.548Z,22.10
2023-05-05T03:59:27.118Z,22.14
2023-05-05T04:00:33.422Z,22.18
2023-05-05T04:01:39.278Z,22.21
2023-05-05T04:02:44.636Z,22.24
2023-05-05T04:03:51.204Z,22.28
2023-05-05T04:04:56.805Z,22.32
2023-05-05T04:06:02.665Z,22.36
2023-05-05T04:07:08.889Z,22.39
2023-05-05T04:08:14.953Z,22.42
2023-05-05T04:09:20.806Z,22.45
2023-05-05T04:10:26.669Z,22.49
2023-05-05T04:11:32.380Z,22.53
2023-05-05T04:12:37.961Z,22.56
2023-05-05T04:13:44.578Z,22.59
2023-05-05T04:14:50.721Z,22.62
2023-05-05T04:15:56.948Z,22.65
2023-05-05T04:17:02.537Z,22.67
2023-05-05T04:18:09.013Z,22.71
2023-05-05T04:19:15.068Z,22.74
2023-05-05T04:20:22.167Z,22.77
2023-05-05T04:21:28.778Z,22.80
2023-05-05T04:22:34.731Z,22.83
2023-05-05T04:23:41.500Z,22.87
2023-05-05T04:24:47.653Z,22.91
2023-05-05T04:25:53.396Z,22.93
2023-05-05T04:26:59.331Z,22.96
2023-05-05T04:28:05.795Z,22.99
2023-05-05T04:29:11.774Z,23.02
2023-05-05T04:30:18.396Z,23.05
2023-05-05T04:31:23.867Z,23.08
2023-05-05T04:32:30.935Z,23.11
2023-05-05T04:33:36.424Z,23.14
2023-05-05T04:34:42.283Z,23.17
2023-05-05T04:35:48.125Z,23.20
2023-05-05T04:36:54.891Z,23.22
2023-05-05T04:38:01.172Z,23.26
2023-05-05T04:39:09.194Z,23.29
2023-05-05T04:40:15.568Z,23.32
2023-05-05T04:41:21.785Z,23.34
2023-05-05T04:42:28.050Z,23.37
2023-05-05T04:43:34.210Z,23.39
2023-05-05T04:44:39.963Z,23.42
2023-05-05T04:45:56.508Z,23.45
2023-05-05T04:47:06.657Z,23.47
2023-05-05T04:48:12.700Z,23.50
2023-05-05T04:49:19.248Z,23.52
2023-05-05T04:50:25.397Z,23.55
2023-05-05T04:51:32.851Z,23.57
2023-05-05T04:52:38.655Z,23.60
2023-05-05T04:53:44.168Z,23.62
2023-05-05T04:54:50.066Z,23.65
2023-05-05T04:55:55.576Z,23.67
2023-05-05T04:57:01.220Z,23.69
2023-05-05T04:58:07.168Z,23.72
2023-05-05T04:59:13.191Z,23.74
2023-05-05T05:00:19.529Z,23.76
2023-05-05T05:01:24.650Z,23.78
2023-05-05T05:02:30.589Z,23.80
2023-05-05T05:03:37.104Z,23.82
2023-05-05T05:04:43.037Z,23.84
2023-05-05T05:05:49.803Z,23.87
2023-05-05T05:06:56.873Z,23.88
2023-05-05T05:08:05.498Z,23.90
2023-05-05T05:09:12.133Z,23.93
2023-05-05T05:10:18.384Z,23.96
2023-05-05T05:11:25.862Z,23.97
2023-05-05T05:12:32.178Z,23.99
2023-05-05T05:13:37.856Z,24.01
2023-05-05T05:14:43.953Z,24.03
2023-05-05T05:15:50.395Z,24.05
2023-05-05T05:16:56.746Z,24.07
2023-05-05T05:18:02.687Z,24.09
2023-05-05T05:19:08.924Z,24.12
2023-05-05T05:20:15.183Z,24.13
2023-05-05T05:21:21.320Z,24.15
2023-05-05T05:22:27.578Z,24.17
2023-05-05T05:23:33.520Z,24.19
2023-05-05T05:24:39.569Z,24.20
2023-05-05T05:25:45.365Z,24.22
2023-05-05T05:26:53.189Z,24.23
2023-05-05T05:28:09.560Z,24.26
2023-05-05T05:29:21.034Z,24.28
2023-05-05T05:30:27.339Z,24.30
2023-05-05T05:31:34.845Z,24.32
2023-05-05T05:32:41.073Z,24.33
2023-05-05T05:33:47.782Z,24.35
2023-05-05T05:34:54.364Z,24.37
2023-05-05T05:36:00.731Z,24.39
2023-05-05T05:37:06.798Z,24.40
2023-05-05T05:38:12.425Z,24.42
2023-05-05T05:39:18.591Z,24.44
2023-05-05T05:40:24.426Z,24.46
2023-05-05T05:41:30.473Z,24.47
2023-05-05T05:42:36.701Z,24.49
2023-05-05T05:43:42.585Z,24.50
2023-05-05T05:44:47.707Z,24.52
2023-05-05T05:45:54.348Z,24.54
2023-05-05T05:47:00.042Z,24.55
2023-05-05T05:48:06.397Z,24.58
2023-05-05T05:49:12.168Z,24.59
2023-05-05T05:50:18.577Z,24.61
2023-05-05T05:51:24.380Z,24.62
2023-05-05T05:52:29.950Z,24.64
2023-05-05T05:53:36.103Z,24.65
2023-05-05T05:54:41.730Z,24.68
2023-05-05T05:55:48.078Z,24.69
2023-05-05T05:56:54.026Z,24.70
2023-05-05T05:58:00.154Z,24.72
2023-05-05T05:59:08.800Z,24.74
2023-05-05T06:00:16.544Z,24.75
2023-05-05T06:01:24.310Z,24.77
2023-05-05T06:02:30.154Z,24.79
2023-05-05T06:03:36.184Z,24.80
2023-05-05T06:04:42.334Z,24.82
2023-05-05T06:06:08.638Z,24.83
2023-05-05T06:07:14.857Z,24.84
2023-05-05T06:08:23.013Z,24.86
2023-05-05T06:09:33.446Z,24.87
2023-05-05T06:10:40.523Z,24.89
2023-05-05T06:11:49.226Z,24.90
2023-05-05T06:12:57.781Z,24.91
2023-05-05T06:14:03.439Z,24.92
2023-05-05T06:15:15.813Z,24.94
2023-05-05T06:16:21.935Z,24.96
2023-05-05T06:17:27.854Z,24.97
2023-05-05T06:18:37.355Z,24.99
2023-05-05T06:19:43.867Z,25.00
2023-05-05T06:20:52.868Z,25.02
2023-05-05T06:21:59.769Z,25.04
2023-05-05T06:23:05.466Z,25.05
2023-05-05T06:24:12.647Z,25.07
2023-05-05T06:25:19.522Z,25.08
2023-05-05T06:26:25.197Z,25.09
2023-05-05T06:27:31.384Z,25.11
2023-05-05T06:28:36.952Z,25.12
2023-05-05T06:29:42.926Z,25.13
2023-05-05T06:30:48.817Z,25.15
2023-05-05T06:31:54.402Z,25.16
2023-05-05T06:33:00.260Z,25.17
2023-05-05T06:34:05.958Z,25.19
2023-05-05T06:35:11.469Z,25.20
2023-05-05T06:36:17.516Z,25.21
2023-05-05T06:37:23.551Z,25.22
2023-05-05T06:38:30.173Z,25.23
2023-05-05T06:39:36.628Z,25.25
2023-05-05T06:40:43.016Z,25.26
2023-05-05T06:41:48.493Z,25.27
2023-05-05T06:42:54.040Z,25.29
2023-05-05T06:44:02.542Z,25.30
2023-05-05T06:45:09.400Z,25.31
2023-05-05T06:46:15.709Z,25.33
2023-05-05T06:47:21.802Z,25.34
2023-05-05T06:48:28.049Z,25.35
2023-05-05T06:49:33.844Z,25.36
2023-05-05T06:50:40.067Z,25.38
2023-05-05T06:51:45.811Z,25.39
2023-05-05T06:52:51.237Z,25.40
2023-05-05T06:53:56.870Z,25.42
2023-05-05T06:55:04.736Z,25.43
2023-05-05T06:56:10.761Z,25.44
2023-05-05T06:57:17.280Z,25.45
2023-05-05T06:58:23.859Z,25.47
2023-05-05T06:59:30.308Z,25.48
2023-05-05T07:00:39.604Z,25.49
2023-05-05T07:01:45.068Z,25.50
2023-05-05T07:02:51.067Z,25.52
2023-05-05T07:03:57.254Z,25.52
2023-05-05T07:05:03.242Z,25.54
2023-05-05T07:06:09.109Z,25.55
2023-05-05T07:07:14.739Z,25.56
2023-05-05T07:08:20.559Z,25.57
2023-05-05T07:09:26.218Z,25.59
2023-05-05T07:10:32.369Z,25.61
2023-05-05T07:11:38.521Z,25.62
2023-05-05T07:12:43.812Z,25.63
2023-05-05T07:13:50.164Z,25.63
2023-05-05T07:14:56.904Z,25.64
2023-05-05T07:16:02.463Z,25.67
2023-05-05T07:17:08.406Z,25.68
2023-05-05T07:18:14.854Z,25.69
2023-05-05T07:19:20.911Z,25.70
2023-05-05T07:20:27.236Z,25.71
2023-05-05T07:21:37.209Z,25.72
2023-05-05T07:22:43.217Z,25.74
2023-05-05T07:23:49.109Z,25.74
2023-05-05T07:24:55.344Z,25.75
2023-05-05T07:26:01.560Z,25.77
2023-05-05T07:27:08.390Z,25.78
2023-05-05T07:28:14.624Z,25.79
2023-05-05T07:29:20.575Z,25.80
2023-05-05T07:30:29.007Z,25.81
2023-05-05T07:31:35.066Z,25.82
2023-05-05T07:32:40.896Z,25.83
2023-05-05T07:33:46.926Z,25.84
2023-05-05T07:34:52.745Z,25.86
2023-05-05T07:35:59.040Z,25.87
2023-05-05T07:37:05.666Z,25.88
2023-05-05T07:38:11.317Z,25.89
2023-05-05T07:39:16.863Z,25.91
2023-05-05T07:40:22.400Z,25.92
2023-05-05T07:41:28.630Z,25.94
2023-05-05T07:42:34.913Z,25.95
2023-05-05T07:43:44.614Z,25.96
2023-05-05T07:44:50.369Z,25.97
2023-05-05T07:45:56.526Z,25.98
2023-05-05T07:47:02.473Z,25.99
2023-05-05T07:48:08.312Z,26.00
2023-05-05T07:49:14.563Z,26.02
2023-05-05T07:50:19.906Z,26.04
2023-05-05T07:51:26.083Z,26.05
2023-05-05T07:52:45.080Z,26.05
2023-05-05T07:53:56.660Z,26.07
2023-05-05T07:55:02.330Z,26.08
2023-05-05T07:56:09.499Z,26.09
2023-05-05T07:57:15.337Z,26.09
2023-05-05T07:58:20.973Z,26.11
2023-05-05T07:59:26.634Z,26.12
2023-05-05T08:00:32.670Z,26.13
2023-05-05T08:01:38.636Z,26.15
2023-05-05T08:02:44.621Z,26.15
2023-05-05T08:03:51.022Z,26.17
2023-05-05T08:04:57.467Z,26.18
2023-05-05T08:06:10.581Z,26.19
2023-05-05T08:07:16.520Z,26.21
2023-05-05T08:08:25.255Z,26.21
2023-05-05T08:09:30.959Z,26.22
2023-05-05T08:10:36.832Z,26.23
2023-05-05T08:11:42.315Z,26.24
2023-05-05T08:12:47.913Z,26.25
2023-05-05T08:13:53.737Z,26.26
2023-05-05T08:14:59.716Z,26.28
2023-05-05T08:16:06.062Z,26.29
2023-05-05T08:17:12.505Z,26.30
2023-05-05T08:18:19.202Z,26.31
2023-05-05T08:19:29.404Z,26.32
2023-05-05T08:20:36.501Z,26.33
2023-05-05T08:21:42.188Z,26.34
2023-05-05T08:22:48.070Z,26.35
2023-05-05T08:23:54.103Z,26.37
2023-05-05T08:25:00.449Z,26.38
2023-05-05T08:26:06.938Z,26.39
2023-05-05T08:27:14.446Z,26.40
2023-05-05T08:28:21.031Z,26.41
2023-05-05T08:29:27.141Z,26.42
2023-05-05T08:30:33.208Z,26.43
2023-05-05T08:31:39.156Z,26.45
2023-05-05T08:32:45.139Z,26.46
2023-05-05T08:33:50.651Z,26.47
2023-05-05T08:34:56.882Z,26.48
2023-05-05T08:36:02.623Z,26.49
2023-05-05T08:37:11.370Z,26.50
2023-05-05T08:38:16.941Z,26.50
2023-05-05T08:39:23.759Z,26.52
2023-05-05T08:40:37.805Z,26.52
2023-05-05T08:41:43.216Z,26.53
2023-05-05T08:42:48.629Z,26.54
2023-05-05T08:43:54.785Z,26.55
2023-05-05T08:45:00.158Z,26.56
2023-05-05T08:46:06.431Z,26.58
2023-05-05T08:47:12.216Z,26.59
2023-05-05T08:48:21.156Z,26.60
2023-05-05T08:49:27.176Z,26.61
2023-05-05T08:50:33.760Z,26.62
2023-05-05T08:51:42.973Z,26.63
2023-05-05T08:52:50.703Z,26.64
2023-05-05T08:54:02.308Z,26.65
2023-05-05T08:55:19.467Z,26.66
2023-05-05T08:56:28.105Z,26.67
2023-05-05T08:57:59.692Z,26.68
2023-05-05T08:59:05.227Z,26.69
2023-05-05T09:00:11.491Z,26.70
2023-05-05T09:01:19.900Z,26.71
2023-05-05T09:02:25.709Z,26.72
2023-05-05T09:03:35.624Z,26.73
2023-05-05T09:04:41.298Z,26.74
2023-05-05T09:05:47.313Z,26.76
2023-05-05T09:06:52.928Z,26.77
2023-05-05T09:07:58.737Z,26.78
2023-05-05T09:09:04.758Z,26.79
2023-05-05T09:10:11.594Z,26.80
2023-05-05T09:11:17.313Z,26.80
2023-05-05T09:12:23.099Z,26.82
2023-05-05T09:13:29.101Z,26.83
2023-05-05T09:14:35.319Z,26.84
2023-05-05T09:15:42.614Z,26.85
2023-05-05T09:16:48.211Z,26.86
2023-05-05T09:17:54.289Z,26.87
2023-05-05T09:19:05.553Z,26.88
2023-05-05T09:20:12.821Z,26.88
2023-05-05T09:21:23.363Z,26.89
2023-05-05T09:22:34.807Z,26.91
2023-05-05T09:23:40.522Z,26.92
2023-05-05T09:24:57.623Z,26.93
2023-05-05T09:26:09.619Z,26.94
2023-05-05T09:27:25.418Z,26.95
2023-05-05T09:28:31.450Z,26.95
2023-05-05T09:29:37.210Z,26.96
2023-05-05T09:30:46.046Z,26.98
2023-05-05T09:32:11.812Z,26.99
2023-05-05T09:33:18.585Z,26.99
2023-05-05T09:34:24.026Z,27.01
2023-05-05T09:35:30.404Z,27.02
2023-05-05T09:36:48.988Z,27.02
2023-05-05T09:37:55.454Z,27.03
2023-05-05T09:39:08.545Z,27.04
2023-05-05T09:40:18.824Z,27.05
2023-05-05T09:41:42.560Z,27.06
2023-05-05T09:42:48.033Z,27.07
2023-05-05T09:43:53.622Z,27.09
2023-05-05T09:45:00.029Z,27.09
2023-05-05T09:46:08.843Z,27.11
2023-05-05T09:47:28.471Z,27.12
2023-05-05T09:48:35.233Z,27.12
2023-05-05T09:49:41.269Z,27.13
2023-05-05T09:50:46.983Z,27.14
2023-05-05T09:51:53.455Z,27.15
2023-05-05T09:53:01.136Z,27.16
2023-05-05T09:54:07.717Z,27.17
2023-05-05T09:55:19.557Z,27.18
2023-05-05T09:56:39.736Z,27.19
2023-05-05T09:57:45.186Z,27.20
2023-05-05T09:58:51.021Z,27.21
2023-05-05T09:59:58.563Z,27.23
2023-05-05T10:01:04.690Z,27.23
2023-05-05T10:02:14.466Z,27.25
2023-05-05T10:03:20.531Z,27.26
2023-05-05T10:04:30.540Z,27.27
2023-05-05T10:05:47.470Z,27.28
2023-05-05T10:06:53.775Z,27.29
2023-05-05T10:08:02.119Z,27.30
2023-05-05T10:09:08.267Z,27.30
2023-05-05T10:10:15.960Z,27.32
2023-05-05T10:11:21.986Z,27.32
2023-05-05T10:12:27.944Z,27.33
2023-05-05T10:13:41.507Z,27.35
2023-05-05T10:14:47.073Z,27.35
2023-05-05T10:15:54.290Z,27.36
2023-05-05T10:17:00.353Z,27.38
2023-05-05T10:18:08.216Z,27.38
2023-05-05T10:19:14.761Z,27.39
2023-05-05T10:20:20.478Z,27.40
2023-05-05T10:21:26.173Z,27.41
2023-05-05T10:22:35.147Z,27.43
2023-05-05T10:23:48.990Z,27.43
2023-05-05T10:25:11.255Z,27.44
2023-05-05T10:26:16.798Z,27.45
2023-05-05T10:27:23.185Z,27.45
2023-05-05T10:28:36.225Z,27.46
2023-05-05T10:29:51.381Z,27.47
2023-05-05T10:31:01.163Z,27.49
2023-05-05T10:32:40.605Z,27.50
2023-05-05T10:33:47.970Z,27.50
2023-05-05T10:34:56.164Z,27.51
2023-05-05T10:36:03.604Z,27.52
2023-05-05T10:37:09.868Z,27.53
2023-05-05T10:38:16.180Z,27.53
2023-05-05T10:39:22.300Z,27.54
2023-05-05T10:40:28.460Z,27.55
2023-05-05T10:41:35.044Z,27.56
2023-05-05T10:42:40.750Z,27.58
2023-05-05T10:43:46.725Z,27.58
2023-05-05T10:44:53.911Z,27.60
2023-05-05T10:45:59.705Z,27.60
2023-05-05T10:47:05.453Z,27.61
2023-05-05T10:48:13.480Z,27.62
2023-05-05T10:49:46.822Z,27.63
2023-05-05T10:51:03.151Z,27.64
2023-05-05T10:52:38.160Z,27.65
2023-05-05T10:53:53.155Z,27.66
2023-05-05T10:55:09.016Z,27.67
2023-05-05T10:56:27.346Z,27.68
2023-05-05T10:57:33.313Z,27.68
2023-05-05T10:58:47.518Z,27.69
2023-05-05T10:59:57.672Z,27.70
2023-05-05T11:01:04.126Z,27.71
2023-05-05T11:02:30.554Z,27.72
2023-05-05T11:03:36.802Z,27.73
2023-05-05T11:04:42.466Z,27.74
2023-05-05T11:06:12.515Z,27.75
2023-05-05T11:07:23.134Z,27.76
2023-05-05T11:08:29.108Z,27.77
2023-05-05T11:09:42.851Z,27.78
2023-05-05T11:10:48.140Z,27.79
2023-05-05T11:12:04.700Z,27.80
2023-05-05T11:13:19.675Z,27.81
2023-05-05T11:14:25.924Z,27.81
2023-05-05T11:15:38.012Z,27.83
2023-05-05T11:16:50.494Z,27.84
2023-05-05T11:18:06.699Z,27.84
2023-05-05T11:19:46.442Z,27.85
2023-05-05T11:21:17.511Z,27.86
2023-05-05T11:22:23.033Z,27.87
2023-05-05T11:23:28.944Z,27.88
2023-05-05T11:24:34.626Z,27.88
2023-05-05T11:25:48.255Z,27.90
2023-05-05T11:26:53.582Z,27.91
2023-05-05T11:28:12.758Z,27.91
2023-05-05T11:29:18.257Z,27.93
2023-05-05T11:30:24.154Z,27.94
2023-05-05T11:31:31.755Z,27.94
2023-05-05T11:32:38.264Z,27.95
2023-05-05T11:33:44.064Z,27.97
2023-05-05T11:34:51.357Z,27.98
2023-05-05T11:36:06.063Z,27.98
2023-05-05T11:37:12.828Z,28.00
2023-05-05T11:38:18.932Z,28.00
2023-05-05T11:39:30.517Z,28.01
2023-05-05T11:40:36.615Z,28.02
2023-05-05T11:42:21.837Z,28.03
2023-05-05T11:43:27.676Z,28.03
2023-05-05T11:44:34.605Z,28.04
2023-05-05T11:45:40.276Z,28.05
2023-05-05T11:47:25.498Z,28.06
2023-05-05T11:48:32.147Z,28.07
2023-05-05T11:49:39.059Z,28.08
2023-05-05T11:50:44.402Z,28.09
2023-05-05T11:52:01.224Z,28.10
2023-05-05T11:53:07.697Z,28.11
2023-05-05T11:54:13.845Z,28.12
2023-05-05T11:55:23.653Z,28.13
2023-05-05T11:56:29.588Z,28.14
2023-05-05T11:57:35.866Z,28.15
2023-05-05T11:58:42.507Z,28.15
2023-05-05T11:59:57.175Z,28.17
2023-05-05T12:01:06.617Z,28.17
2023-05-05T12:02:12.433Z,28.18
2023-05-05T12:03:18.487Z,28.19
2023-05-05T12:04:24.386Z,28.20
2023-05-05T12:05:30.277Z,28.21
2023-05-05T12:06:36.135Z,28.21
2023-05-05T12:07:42.083Z,28.23
2023-05-05T12:08:47.475Z,28.24
2023-05-05T12:09:53.166Z,28.24
2023-05-05T12:11:09.113Z,28.25
2023-05-05T12:12:15.376Z,28.25
2023-05-05T12:13:21.662Z,28.26
2023-05-05T12:14:28.106Z,28.26
2023-05-05T12:15:34.152Z,28.27
2023-05-05T12:16:40.017Z,28.28
2023-05-05T12:17:47.375Z,28.29
2023-05-05T12:19:06.682Z,28.30
2023-05-05T12:20:13.577Z,28.31
2023-05-05T12:21:19.766Z,28.32
2023-05-05T12:22:26.741Z,28.33
2023-05-05T12:23:39.318Z,28.34
2023-05-05T12:24:55.284Z,28.34
2023-05-05T12:26:00.948Z,28.35
2023-05-05T12:27:11.168Z,28.35
2023-05-05T12:28:16.902Z,28.36
2023-05-05T12:29:30.546Z,28.37
2023-05-05T12:30:36.924Z,28.38
2023-05-05T12:31:43.283Z,28.39
2023-05-05T12:32:49.437Z,28.40
2023-05-05T12:33:55.880Z,28.40
2023-05-05T12:35:02.043Z,28.41
2023-05-05T12:36:08.337Z,28.42
2023-05-05T12:37:14.501Z,28.42
2023-05-05T12:38:20.762Z,28.43
2023-05-05T12:39:37.071Z,28.44
2023-05-05T12:40:52.341Z,28.44
2023-05-05T12:42:04.443Z,28.45
2023-05-05T12:43:10.012Z,28.46
2023-05-05T12:44:16.287Z,28.47
2023-05-05T12:45:21.763Z,28.48
2023-05-05T12:46:29.949Z,28.49
2023-05-05T12:47:37.468Z,28.49
2023-05-05T12:48:48.326Z,28.50
2023-05-05T12:49:57.654Z,28.51
2023-05-05T12:51:17.493Z,28.51
2023-05-05T12:52:23.648Z,28.52
2023-05-05T12:53:29.883Z,28.53
2023-05-05T12:54:36.550Z,28.54
2023-05-05T12:55:43.115Z,28.56
2023-05-05T12:56:48.706Z,28.56
2023-05-05T12:58:02.582Z,28.57
2023-05-05T12:59:11.935Z,28.58
2023-05-05T13:00:19.217Z,28.58
2023-05-05T13:01:25.130Z,28.59
2023-05-05T13:02:37.507Z,28.59
2023-05-05T13:03:43.863Z,28.60
2023-05-05T13:04:53.615Z,28.61
2023-05-05T13:05:59.323Z,28.61
2023-05-05T13:07:18.330Z,28.62
2023-05-05T13:08:23.861Z,28.63
2023-05-05T13:09:36.709Z,28.63
2023-05-05T13:11:01.923Z,28.64
2023-05-05T13:12:09.065Z,28.65
2023-05-05T13:13:14.502Z,28.65
2023-05-05T13:14:20.232Z,28.66
2023-05-05T13:15:26.647Z,28.67
2023-05-05T13:16:32.525Z,28.68
2023-05-05T13:17:38.144Z,28.68
2023-05-05T13:18:47.670Z,28.70
2023-05-05T13:19:53.642Z,28.70
2023-05-05T13:20:59.784Z,28.71
2023-05-05T13:22:05.751Z,28.71
2023-05-05T13:23:12.132Z,28.72
2023-05-05T13:24:28.586Z,28.73
2023-05-05T13:25:40.372Z,28.73
2023-05-05T13:26:45.882Z,28.74
2023-05-05T13:27:51.656Z,28.75
2023-05-05T13:28:57.329Z,28.75
2023-05-05T13:30:03.240Z,28.75
2023-05-05T13:31:09.209Z,28.77
2023-05-05T13:32:15.453Z,28.77
2023-05-05T13:33:21.677Z,28.78
2023-05-05T13:34:27.947Z,28.79
2023-05-05T13:35:34.797Z,28.79
2023-05-05T13:36:40.166Z,28.80
2023-05-05T13:37:47.119Z,28.80
2023-05-05T13:38:53.264Z,28.81
2023-05-05T13:40:01.018Z,28.83
2023-05-05T13:41:07.015Z,28.83
2023-05-05T13:42:12.744Z,28.84
2023-05-05T13:43:18.806Z,28.84
2023-05-05T13:44:24.362Z,28.85
2023-05-05T13:45:30.715Z,28.86
2023-05-05T13:46:36.861Z,28.86
2023-05-05T13:47:43.397Z,28.87
2023-05-05T13:48:49.071Z,28.87
2023-05-05T13:49:55.308Z,28.88
2023-05-05T13:51:01.867Z,28.89
2023-05-05T13:52:07.388Z,28.90
2023-05-05T13:53:13.202Z,28.90
2023-05-05T13:54:19.083Z,28.91
2023-05-05T13:55:25.128Z,28.91
2023-05-05T13:56:31.294Z,28.92
2023-05-05T13:57:36.666Z,28.92
2023-05-05T13:58:43.064Z,28.93
2023-05-05T13:59:48.407Z,28.94
2023-05-05T14:00:53.999Z,28.95
2023-05-05T14:01:59.708Z,28.95
2023-05-05T14:03:05.300Z,28.96
2023-05-05T14:04:11.612Z,28.96
2023-05-05T14:05:17.693Z,28.97
2023-05-05T14:06:23.772Z,28.98
2023-05-05T14:07:30.330Z,28.98
2023-05-05T14:08:38.795Z,28.98
2023-05-05T14:09:44.349Z,28.99
2023-05-05T14:10:51.511Z,29.00
2023-05-05T14:11:58.537Z,29.01
2023-05-05T14:13:04.573Z,29.02
2023-05-05T14:14:10.917Z,29.02
2023-05-05T14:15:17.348Z,29.02
2023-05-05T14:16:22.974Z,29.03
2023-05-05T14:17:28.965Z,29.03
2023-05-05T14:18:34.835Z,29.04
2023-05-05T14:19:39.974Z,29.05
2023-05-05T14:20:45.674Z,29.05
2023-05-05T14:21:51.246Z,29.06
2023-05-05T14:22:57.057Z,29.06
2023-05-05T14:24:03.306Z,29.07
2023-05-05T14:25:10.140Z,29.08
2023-05-05T14:26:16.445Z,29.09
2023-05-05T14:27:23.335Z,29.09
2023-05-05T14:28:29.544Z,29.09
2023-05-05T14:29:35.805Z,29.09
2023-05-05T14:30:41.496Z,29.11
2023-05-05T14:31:47.447Z,29.11
2023-05-05T14:32:52.999Z,29.12
2023-05-05T14:33:59.610Z,29.12
2023-05-05T14:35:05.634Z,29.12
2023-05-05T14:36:12.293Z,29.13
2023-05-05T14:37:18.825Z,29.14
2023-05-05T14:38:25.601Z,29.15
2023-05-05T14:39:31.584Z,29.15
2023-05-05T14:40:37.108Z,29.15
2023-05-05T14:41:42.354Z,29.16